createdAt,value
2023-01-30T00:01:26.931Z,100146.78
2023-01-30T00:03:56.147Z,100145.25
2023-01-30T00:06:25.326Z,100141.44
2023-01-30T00:08:55.687Z,100147.03
2023-01-30T00:11:24.848Z,100121.69
2023-01-30T00:13:53.571Z,100129.38
2023-01-30T00:16:22.498Z,100129.38
2023-01-30T00:18:51.459Z,100128.03
2023-01-30T00:21:21.230Z,100119.66
2023-01-30T00:23:49.972Z,100117.50
2023-01-30T00:26:20.235Z,100109.69
2023-01-30T00:28:49.449Z,100098.97
2023-01-30T00:31:18.240Z,100090.72
2023-01-30T00:33:47.107Z,100085.28
2023-01-30T00:36:16.672Z,100095.06
2023-01-30T00:38:45.525Z,100091.03
2023-01-30T00:41:15.693Z,100087.56
2023-01-30T00:43:54.777Z,100089.28
2023-01-30T00:46:46.744Z,100084.31
2023-01-30T00:49:15.599Z,100080.47
2023-01-30T00:51:44.311Z,100076.44
2023-01-30T00:54:15.012Z,100081.63
2023-01-30T00:56:44.632Z,100079.88
2023-01-30T00:59:15.013Z,100076.06
2023-01-30T01:01:43.893Z,100071.47
2023-01-30T01:04:12.616Z,100064.38
2023-01-30T01:06:42.571Z,100057.19
2023-01-30T01:09:11.385Z,100055.53
2023-01-30T01:11:40.201Z,100041.66
2023-01-30T01:14:08.999Z,100044.91
2023-01-30T01:16:39.277Z,100042.13
2023-01-30T01:19:08.486Z,100028.91
2023-01-30T01:21:37.249Z,100029.13
2023-01-30T01:24:06.700Z,100018.84
2023-01-30T01:26:35.858Z,100017.41
2023-01-30T01:29:05.079Z,100018.97
2023-01-30T01:31:33.950Z,100023.28
2023-01-30T01:34:04.337Z,100011.88
2023-01-30T01:36:52.771Z,100014.25
2023-01-30T01:39:22.221Z,100013.22
2023-01-30T01:41:51.771Z,100013.00
2023-01-30T01:44:20.609Z,100005.94
2023-01-30T01:46:53.229Z,100004.78
2023-01-30T01:49:27.940Z,100007.06
2023-01-30T01:52:03.621Z,99999.81
2023-01-30T01:54:37.897Z,100001.34
2023-01-30T01:57:12.863Z,100006.13
2023-01-30T01:59:47.868Z,99999.81
2023-01-30T02:02:19.005Z,99996.44
2023-01-30T02:05:04.093Z,99996.72
2023-01-30T02:07:38.438Z,99995.00
2023-01-30T02:10:09.909Z,99996.16
2023-01-30T02:12:40.776Z,99999.59
2023-01-30T02:15:11.594Z,99992.59
2023-01-30T02:17:43.468Z,99992.13
2023-01-30T02:20:24.765Z,99980.25
2023-01-30T02:23:25.001Z,99980.44
2023-01-30T02:26:16.390Z,99971.66
2023-01-30T02:29:12.048Z,99964.19
2023-01-30T02:31:50.043Z,99961.88
2023-01-30T02:34:37.094Z,99947.13
2023-01-30T02:37:17.614Z,99951.72
2023-01-30T02:39:57.882Z,99948.66
2023-01-30T02:42:36.429Z,99946.06
2023-01-30T02:45:12.734Z,99940.63
2023-01-30T02:47:46.917Z,99947.50
2023-01-30T02:50:22.670Z,99948.25
2023-01-30T02:52:51.564Z,99941.56
2023-01-30T02:55:22.886Z,99943.66
2023-01-30T02:57:53.392Z,99937.06
2023-01-30T03:00:29.517Z,99936.09
2023-01-30T03:03:20.914Z,99932.91
2023-01-30T03:06:13.713Z,99932.91
2023-01-30T03:08:54.687Z,99930.25
2023-01-30T03:11:29.692Z,99926.81
2023-01-30T03:14:07.009Z,99928.34
2023-01-30T03:16:40.107Z,99925.28
2023-01-30T03:19:14.091Z,99915.50
2023-01-30T03:21:45.052Z,99912.25
2023-01-30T03:24:14.916Z,99914.63
2023-01-30T03:26:50.300Z,99902.31
2023-01-30T03:29:19.228Z,99900.28
2023-01-30T03:31:48.216Z,99904.97
2023-01-30T03:34:18.823Z,99897.88
2023-01-30T03:36:48.822Z,99887.84
2023-01-30T03:39:18.197Z,99895.41
2023-01-30T03:41:47.904Z,99894.06
2023-01-30T03:44:19.356Z,99904.44
2023-01-30T03:46:48.214Z,99905.34
2023-01-30T03:49:18.355Z,99903.81
2023-01-30T03:51:49.160Z,99895.31
2023-01-30T03:54:18.022Z,99896.38
2023-01-30T03:56:46.756Z,99883.34
2023-01-30T03:59:15.724Z,99879.72
2023-01-30T04:01:51.699Z,99881.84
2023-01-30T04:04:22.509Z,99886.03
2023-01-30T04:06:51.414Z,99879.94
2023-01-30T04:09:21.424Z,99879.72
2023-01-30T04:11:53.765Z,99873.78
2023-01-30T04:14:22.663Z,99875.28
2023-01-30T04:17:11.683Z,99874.47
2023-01-30T04:19:53.195Z,99868.53
2023-01-30T04:22:22.161Z,99866.88
2023-01-30T04:24:50.939Z,99862.84
2023-01-30T04:27:19.722Z,99854.56
2023-01-30T04:30:10.034Z,99854.25
2023-01-30T04:32:39.145Z,99852.56
2023-01-30T04:35:10.336Z,99849.28
2023-01-30T04:37:40.764Z,99839.63
2023-01-30T04:40:13.235Z,99848.53
2023-01-30T04:42:42.268Z,99849.66
2023-01-30T04:45:22.223Z,99846.03
2023-01-30T04:47:52.730Z,99844.31
2023-01-30T04:50:23.342Z,99839.53
2023-01-30T04:52:53.022Z,99838.56
2023-01-30T04:55:21.837Z,99831.22
2023-01-30T04:57:50.739Z,99833.78
2023-01-30T05:00:19.967Z,99821.66
2023-01-30T05:02:56.268Z,99822.69
2023-01-30T05:05:28.590Z,99813.22
2023-01-30T05:07:57.430Z,99811.19
2023-01-30T05:10:26.172Z,99812.63
2023-01-30T05:12:54.930Z,99809.72
2023-01-30T05:15:23.796Z,99804.84
2023-01-30T05:17:52.486Z,99806.84
2023-01-30T05:20:21.236Z,99797.34
2023-01-30T05:22:51.741Z,99799.84
2023-01-30T05:25:20.838Z,99793.22
2023-01-30T05:27:49.571Z,99800.19
2023-01-30T05:30:19.144Z,99798.22
2023-01-30T05:32:47.622Z,99800.03
2023-01-30T05:35:16.793Z,99803.59
2023-01-30T05:37:45.629Z,99792.28
2023-01-30T05:40:16.168Z,99781.78
2023-01-30T05:42:44.943Z,99783.28
2023-01-30T05:45:13.708Z,99777.91
2023-01-30T05:47:42.497Z,99781.78
2023-01-30T05:50:12.804Z,99772.22
2023-01-30T05:52:41.530Z,99773.34
2023-01-30T05:55:11.356Z,99758.84
2023-01-30T05:57:41.592Z,99740.47
2023-01-30T06:00:11.915Z,99740.56
2023-01-30T06:02:43.775Z,99744.84
2023-01-30T06:05:12.506Z,99745.97
2023-01-30T06:07:41.198Z,99749.25
2023-01-30T06:10:11.492Z,99753.31
2023-01-30T06:12:41.636Z,99756.47
2023-01-30T06:15:12.033Z,99764.28
2023-01-30T06:17:43.994Z,99767.28
2023-01-30T06:20:13.830Z,99770.13
2023-01-30T06:22:42.551Z,99766.44
2023-01-30T06:25:11.918Z,99772.81
2023-01-30T06:27:43.679Z,99763.19
2023-01-30T06:30:13.631Z,99765.94
2023-01-30T06:32:43.849Z,99767.25
2023-01-30T06:35:12.499Z,99774.22
2023-01-30T06:37:41.233Z,99783.13
2023-01-30T06:40:11.803Z,99782.63
2023-01-30T06:42:46.052Z,99781.41
2023-01-30T06:45:16.172Z,99775.84
2023-01-30T06:47:48.563Z,99776.16
2023-01-30T06:50:19.219Z,99767.94
2023-01-30T06:52:52.172Z,99761.03
2023-01-30T06:55:22.956Z,99755.28
2023-01-30T06:58:03.020Z,99753.56
2023-01-30T07:00:32.313Z,99733.47
2023-01-30T07:03:01.291Z,99706.63
2023-01-30T07:05:30.460Z,99684.78
2023-01-30T07:07:59.439Z,99693.72
2023-01-30T07:10:29.318Z,99685.84
2023-01-30T07:12:59.505Z,99703.69
2023-01-30T07:15:28.326Z,99698.53
2023-01-30T07:17:57.149Z,99693.53
2023-01-30T07:20:25.865Z,99714.66
2023-01-30T07:22:55.891Z,99698.47
2023-01-30T07:25:27.699Z,99711.91
2023-01-30T07:27:59.110Z,99727.47
2023-01-30T07:30:29.808Z,99711.56
2023-01-30T07:33:00.664Z,99710.00
2023-01-30T07:35:31.503Z,99705.19
2023-01-30T07:38:00.483Z,99685.06
2023-01-30T07:40:29.461Z,99697.78
2023-01-30T07:43:01.846Z,99692.25
2023-01-30T07:45:36.226Z,99713.56
2023-01-30T07:48:05.299Z,99709.84
2023-01-30T07:50:33.956Z,99713.69
2023-01-30T07:53:05.213Z,99719.16
2023-01-30T07:55:34.728Z,99712.59
2023-01-30T07:58:05.642Z,99714.16
2023-01-30T08:00:35.740Z,99712.66
2023-01-30T08:03:04.105Z,99708.25
2023-01-30T08:05:32.859Z,99691.47
2023-01-30T08:08:01.921Z,99695.19
2023-01-30T08:10:30.655Z,99694.59
2023-01-30T08:12:59.784Z,99687.97
2023-01-30T08:15:32.245Z,99683.28
2023-01-30T08:18:01.421Z,99672.81
2023-01-30T08:20:30.204Z,99672.88
2023-01-30T08:23:02.401Z,99668.00
2023-01-30T08:25:33.046Z,99663.06
2023-01-30T08:28:01.760Z,99642.47
2023-01-30T08:30:32.755Z,99636.63
2023-01-30T08:33:01.687Z,99628.19
2023-01-30T08:35:30.336Z,99619.69
2023-01-30T08:38:00.092Z,99619.91
2023-01-30T08:40:29.358Z,99615.38
2023-01-30T08:42:58.217Z,99631.84
2023-01-30T08:45:27.161Z,99624.72
2023-01-30T08:48:00.127Z,99629.00
2023-01-30T08:50:28.985Z,99617.50
2023-01-30T08:52:57.861Z,99615.19
2023-01-30T08:55:26.630Z,99611.75
2023-01-30T08:57:57.820Z,99600.84
2023-01-30T09:00:26.981Z,99594.88
2023-01-30T09:02:57.675Z,99601.16
2023-01-30T09:05:26.623Z,99608.16
2023-01-30T09:07:55.278Z,99591.59
2023-01-30T09:10:24.757Z,99596.81
2023-01-30T09:12:53.531Z,99586.44
2023-01-30T09:15:22.813Z,99579.22
2023-01-30T09:17:53.395Z,99571.66
2023-01-30T09:20:23.913Z,99573.44
2023-01-30T09:22:52.716Z,99578.56
2023-01-30T09:25:21.789Z,99568.06
2023-01-30T09:27:51.366Z,99561.53
2023-01-30T09:30:20.506Z,99547.66
2023-01-30T09:32:50.187Z,99540.38
2023-01-30T09:35:19.304Z,99552.50
2023-01-30T09:37:54.056Z,99547.00
2023-01-30T09:40:26.389Z,99534.75
2023-01-30T09:43:25.352Z,99538.47
2023-01-30T09:46:13.247Z,99528.59
2023-01-30T09:48:54.032Z,99518.66
2023-01-30T09:51:42.346Z,99506.97
2023-01-30T09:54:25.901Z,99504.00
2023-01-30T09:57:21.656Z,99507.56
2023-01-30T09:59:59.146Z,99510.97
2023-01-30T10:02:46.046Z,99506.09
2023-01-30T10:05:14.910Z,99499.53
2023-01-30T10:08:02.491Z,99507.28
2023-01-30T10:10:47.297Z,99497.50
2023-01-30T10:13:34.270Z,99493.31
2023-01-30T10:16:11.577Z,99492.47
2023-01-30T10:19:06.076Z,99484.31
2023-01-30T10:21:47.930Z,99474.34
2023-01-30T10:24:27.805Z,99461.97
2023-01-30T10:26:58.638Z,99448.69
2023-01-30T10:29:33.048Z,99447.81
2023-01-30T10:32:08.629Z,99443.19
2023-01-30T10:34:41.193Z,99441.78
2023-01-30T10:37:14.670Z,99437.69
2023-01-30T10:39:55.426Z,99432.69
2023-01-30T10:42:32.476Z,99437.94
2023-01-30T10:45:10.542Z,99431.47
2023-01-30T10:47:57.083Z,99427.56
2023-01-30T10:50:35.553Z,99425.22
2023-01-30T10:53:13.379Z,99419.31
2023-01-30T10:55:49.427Z,99410.47
2023-01-30T10:58:29.186Z,99398.84
2023-01-30T11:01:01.467Z,99398.84
2023-01-30T11:03:39.251Z,99404.94
2023-01-30T11:06:13.068Z,99402.50
2023-01-30T11:08:41.911Z,99392.59
2023-01-30T11:11:27.357Z,99379.28
2023-01-30T11:14:09.736Z,99369.13
2023-01-30T11:16:46.222Z,99367.66
2023-01-30T11:19:20.115Z,99361.22
2023-01-30T11:21:52.062Z,99345.25
2023-01-30T11:24:23.130Z,99344.13
2023-01-30T11:26:53.316Z,99326.50
2023-01-30T11:29:30.817Z,99318.34
2023-01-30T11:32:04.350Z,99312.66
2023-01-30T11:34:33.839Z,99302.66
2023-01-30T11:37:14.507Z,99297.63
2023-01-30T11:39:50.219Z,99291.91
2023-01-30T11:42:21.079Z,99294.72
2023-01-30T11:45:10.792Z,99269.81
2023-01-30T11:48:01.361Z,99256.56
2023-01-30T11:50:43.447Z,99258.56
2023-01-30T11:53:27.404Z,99247.22
2023-01-30T11:56:06.445Z,99223.19
2023-01-30T11:58:40.325Z,99223.50
2023-01-30T12:01:14.021Z,99224.53
2023-01-30T12:03:49.937Z,99227.13
2023-01-30T12:06:27.142Z,99215.50
2023-01-30T12:08:57.898Z,99214.91
2023-01-30T12:11:33.290Z,99214.22
2023-01-30T12:14:16.796Z,99210.09
2023-01-30T12:16:57.805Z,99211.88
2023-01-30T12:19:37.305Z,99213.03
2023-01-30T12:22:20.907Z,99205.81
2023-01-30T12:25:00.491Z,99197.63
2023-01-30T12:27:44.766Z,99198.72
2023-01-30T12:30:26.249Z,99203.03
2023-01-30T12:35:47.720Z,99190.59
2023-01-30T12:38:32.462Z,99195.75
2023-01-30T12:41:17.736Z,99182.50
2023-01-30T12:43:57.607Z,99181.03
2023-01-30T12:46:46.121Z,99184.56
2023-01-30T12:49:37.904Z,99155.81
2023-01-30T12:52:22.664Z,99175.53
2023-01-30T12:54:58.903Z,99172.09
2023-01-30T12:57:37.376Z,99165.34
2023-01-30T13:00:26.189Z,99164.47
2023-01-30T13:03:12.794Z,99170.47
2023-01-30T13:05:48.146Z,99161.31
2023-01-30T13:08:34.847Z,99162.97
2023-01-30T13:11:14.519Z,99169.59
2023-01-30T13:13:47.481Z,99156.94
2023-01-30T13:16:31.040Z,99156.94
2023-01-30T13:19:07.556Z,99145.97
2023-01-30T13:21:45.006Z,99153.44
2023-01-30T13:24:24.331Z,99154.28
2023-01-30T13:26:56.106Z,99150.03
2023-01-30T13:29:32.751Z,99145.00
2023-01-30T13:32:05.100Z,99144.16
2023-01-30T13:34:36.686Z,99151.66
2023-01-30T13:37:12.604Z,99143.22
2023-01-30T13:39:48.144Z,99136.50
2023-01-30T13:42:28.747Z,99138.31
2023-01-30T13:44:58.423Z,99128.94
2023-01-30T13:47:45.682Z,99104.56
2023-01-30T13:50:28.772Z,99121.41
2023-01-30T13:53:03.250Z,99128.94
2023-01-30T13:55:40.514Z,99123.03
2023-01-30T13:58:25.491Z,99131.38
2023-01-30T14:00:56.278Z,99131.47
2023-01-30T14:03:29.291Z,99128.06
2023-01-30T14:06:12.130Z,99115.34
2023-01-30T14:08:51.883Z,99119.38
2023-01-30T14:11:34.187Z,99125.16
2023-01-30T14:14:08.045Z,99113.38
2023-01-30T14:16:46.086Z,99121.66
2023-01-30T14:19:36.383Z,99119.91
2023-01-30T14:22:19.919Z,99112.38
2023-01-30T14:25:21.668Z,99112.38
2023-01-30T14:27:53.248Z,99108.13
2023-01-30T14:30:37.469Z,99110.59
2023-01-30T14:33:36.339Z,99106.38
2023-01-30T14:36:30.649Z,99101.31
2023-01-30T14:39:30.413Z,99083.31
2023-01-30T14:42:13.053Z,99104.63
2023-01-30T14:45:05.583Z,99102.09
2023-01-30T14:47:46.389Z,99100.47
2023-01-30T14:50:22.672Z,99092.03
2023-01-30T14:52:56.378Z,99096.22
2023-01-30T14:55:29.938Z,99095.44
2023-01-30T14:58:02.407Z,99103.75
2023-01-30T15:00:36.522Z,99098.06
2023-01-30T15:03:11.088Z,99077.06
2023-01-30T15:05:45.381Z,99075.47
2023-01-30T15:08:18.390Z,99095.59
2023-01-30T15:11:00.719Z,99103.19
2023-01-30T15:13:44.132Z,99102.44
2023-01-30T15:16:39.878Z,99107.47
2023-01-30T15:19:25.493Z,99104.13
2023-01-30T15:22:07.651Z,99101.72
2023-01-30T15:24:57.057Z,99106.00
2023-01-30T15:27:32.740Z,99103.56
2023-01-30T15:30:18.570Z,99097.78
2023-01-30T15:32:48.970Z,99102.88
2023-01-30T15:35:30.127Z,99105.38
2023-01-30T15:37:59.574Z,99103.72
2023-01-30T15:40:30.062Z,99098.72
2023-01-30T15:43:23.322Z,99100.44
2023-01-30T15:46:08.009Z,99092.94
2023-01-30T15:49:02.488Z,99098.81
2023-01-30T15:51:33.564Z,99092.94
2023-01-30T15:54:10.390Z,99103.84
2023-01-30T15:56:42.011Z,99104.84
2023-01-30T15:59:29.663Z,99109.94
2023-01-30T16:02:04.144Z,99106.69
2023-01-30T16:04:34.456Z,99121.03
2023-01-30T16:07:17.035Z,99118.72
2023-01-30T16:10:11.363Z,99118.81
2023-01-30T16:12:41.179Z,99116.34
2023-01-30T16:15:19.984Z,99125.63
2023-01-30T16:18:05.621Z,99128.91
2023-01-30T16:20:59.250Z,99118.97
2023-01-30T16:23:35.391Z,99113.16
2023-01-30T16:26:06.240Z,99119.06
2023-01-30T16:28:35.340Z,99107.34
2023-01-30T16:31:06.747Z,99103.97
2023-01-30T16:33:37.328Z,99109.09
2023-01-30T16:36:33.309Z,99104.91
2023-01-30T16:39:02.652Z,99104.31
2023-01-30T16:41:33.960Z,99090.13
2023-01-30T16:44:19.542Z,99092.81
2023-01-30T16:46:56.867Z,99106.25
2023-01-30T16:49:33.015Z,99101.25
2023-01-30T16:52:06.972Z,99111.28
2023-01-30T16:54:38.040Z,99114.69
2023-01-30T16:57:07.558Z,99120.63
2023-01-30T16:59:38.681Z,99128.38
2023-01-30T17:02:08.700Z,99128.47
2023-01-30T17:04:42.267Z,99124.38
2023-01-30T17:07:35.361Z,99121.97
2023-01-30T17:10:04.304Z,99113.59
2023-01-30T17:12:53.286Z,99110.31
2023-01-30T17:15:36.334Z,99112.94
2023-01-30T17:18:07.880Z,99119.03
2023-01-30T17:20:45.779Z,99114.00
2023-01-30T17:23:20.759Z,99120.88
2023-01-30T17:25:50.844Z,99129.22
2023-01-30T17:28:24.469Z,99125.84
2023-01-30T17:30:53.215Z,99126.59
2023-01-30T17:33:21.918Z,99124.88
2023-01-30T17:35:51.740Z,99106.44
2023-01-30T17:38:21.972Z,99105.72
2023-01-30T17:40:51.068Z,99104.09
2023-01-30T17:43:19.683Z,99109.13
2023-01-30T17:45:48.576Z,99115.78
2023-01-30T17:48:17.290Z,99110.84
2023-01-30T17:50:46.036Z,99110.97
2023-01-30T17:53:14.747Z,99117.78
2023-01-30T17:55:44.941Z,99114.44
2023-01-30T17:58:18.382Z,99124.56
2023-01-30T18:00:47.589Z,99126.31
2023-01-30T18:03:16.286Z,99129.69
2023-01-30T18:05:45.048Z,99137.38
2023-01-30T18:08:14.338Z,99140.00
2023-01-30T18:10:44.445Z,99142.56
2023-01-30T18:13:13.246Z,99154.50
2023-01-30T18:15:41.987Z,99155.28
2023-01-30T18:18:13.223Z,99156.06
2023-01-30T18:20:42.414Z,99164.56
2023-01-30T18:23:11.157Z,99157.88
2023-01-30T18:25:39.893Z,99160.41
2023-01-30T18:28:11.719Z,99151.97
2023-01-30T18:30:40.594Z,99167.22
2023-01-30T18:33:09.344Z,99164.63
2023-01-30T18:35:39.353Z,99159.72
2023-01-30T18:38:07.999Z,99159.72
2023-01-30T18:40:39.357Z,99143.78
2023-01-30T18:43:09.519Z,99147.22
2023-01-30T18:45:38.235Z,99139.69
2023-01-30T18:48:07.481Z,99141.31
2023-01-30T18:50:36.159Z,99146.34
2023-01-30T18:53:05.003Z,99151.38
2023-01-30T18:55:33.739Z,99147.16
2023-01-30T18:58:02.645Z,99152.25
2023-01-30T19:00:32.899Z,99126.75
2023-01-30T19:03:01.605Z,99149.81
2023-01-30T19:05:30.356Z,99147.31
2023-01-30T19:07:59.152Z,99150.75
2023-01-30T19:10:28.734Z,99150.91
2023-01-30T19:13:10.968Z,99161.94
2023-01-30T19:15:41.242Z,99162.81
2023-01-30T19:18:10.142Z,99154.47
2023-01-30T19:20:38.904Z,99156.16
2023-01-30T19:23:07.695Z,99147.78
2023-01-30T19:25:37.065Z,99143.56
2023-01-30T19:28:06.743Z,99146.97
2023-01-30T19:30:35.464Z,99149.63
2023-01-30T19:33:06.068Z,99143.81
2023-01-30T19:35:34.954Z,99138.78
2023-01-30T19:38:05.012Z,99148.88
2023-01-30T19:40:33.796Z,99154.84
2023-01-30T19:43:10.657Z,99146.50
2023-01-30T19:45:40.802Z,99154.09
2023-01-30T19:48:13.428Z,99144.06
2023-01-30T19:50:42.211Z,99143.25
2023-01-30T19:53:10.847Z,99159.97
2023-01-30T19:55:39.679Z,99150.63
2023-01-30T19:58:08.396Z,99156.41
2023-01-30T20:00:37.155Z,99148.84
2023-01-30T20:03:05.923Z,99154.75
2023-01-30T20:05:36.145Z,99143.81
2023-01-30T20:08:05.211Z,99159.78
2023-01-30T20:10:33.995Z,99150.50
2023-01-30T20:13:04.118Z,99148.94
2023-01-30T20:15:34.239Z,99163.28
2023-01-30T20:18:02.899Z,99158.34
2023-01-30T20:20:31.695Z,99140.72
2023-01-30T20:23:02.929Z,99148.31
2023-01-30T20:25:31.739Z,99155.84
2023-01-30T20:28:00.545Z,99146.69
2023-01-30T20:30:29.453Z,99147.53
2023-01-30T20:32:58.232Z,99154.25
2023-01-30T20:35:26.992Z,99148.38
2023-01-30T20:37:55.702Z,99149.22
2023-01-30T20:40:25.907Z,99144.84
2023-01-30T20:42:54.686Z,99148.38
2023-01-30T20:45:23.408Z,99144.19
2023-01-30T20:47:52.171Z,99127.31
2023-01-30T20:50:21.181Z,99129.94
2023-01-30T20:52:51.811Z,99126.53
2023-01-30T20:55:21.202Z,99118.09
2023-01-30T20:57:51.841Z,99119.78
2023-01-30T21:00:21.230Z,99131.50
2023-01-30T21:02:53.206Z,99133.16
2023-01-30T21:05:21.933Z,99133.13
2023-01-30T21:07:50.668Z,99132.19
2023-01-30T21:10:20.868Z,99143.91
2023-01-30T21:12:49.678Z,99135.50
2023-01-30T21:15:20.172Z,99149.06
2023-01-30T21:17:49.679Z,99151.66
2023-01-30T21:20:18.396Z,99148.31
2023-01-30T21:22:58.350Z,99135.69
2023-01-30T21:25:38.097Z,99148.31
2023-01-30T21:28:18.349Z,99160.97
2023-01-30T21:31:05.806Z,99151.81
2023-01-30T21:33:45.887Z,99161.88
2023-01-30T21:36:26.852Z,99155.97
2023-01-30T21:39:16.806Z,99155.13
2023-01-30T21:42:06.631Z,99157.66
2023-01-30T21:44:46.644Z,99170.31
2023-01-30T21:47:27.940Z,99172.16
2023-01-30T21:50:07.743Z,99173.00
2023-01-30T21:52:47.479Z,99168.94
2023-01-30T21:55:27.103Z,99158.84
2023-01-30T21:58:06.588Z,99163.81
2023-01-30T22:00:46.698Z,99153.66
2023-01-30T22:03:29.425Z,99162.00
2023-01-30T22:06:10.069Z,99164.41
2023-01-30T22:08:48.620Z,99153.41
2023-01-30T22:11:30.469Z,99155.88
2023-01-30T22:14:13.565Z,99138.88
2023-01-30T22:16:53.814Z,99127.94
2023-01-30T22:19:36.626Z,99129.75
2023-01-30T22:22:16.493Z,99139.81
2023-01-30T22:24:56.617Z,99141.50
2023-01-30T22:27:36.402Z,99144.88
2023-01-30T22:30:16.558Z,99155.16
2023-01-30T22:32:56.761Z,99149.41
2023-01-30T22:35:38.368Z,99161.19
2023-01-30T22:38:20.910Z,99167.97
2023-01-30T22:41:02.525Z,99161.31
2023-01-30T22:43:46.197Z,99177.09
2023-01-30T22:46:26.733Z,99170.16
2023-01-30T22:49:08.466Z,99173.38
2023-01-30T22:51:49.583Z,99174.94
2023-01-30T22:54:29.148Z,99175.69
2023-01-30T22:57:09.022Z,99173.16
2023-01-30T22:59:48.959Z,99174.81
2023-01-30T23:02:27.768Z,99161.38
2023-01-30T23:05:09.460Z,99161.28
2023-01-30T23:07:50.829Z,99153.78
2023-01-30T23:10:31.017Z,99152.94
2023-01-30T23:13:15.591Z,99156.34
2023-01-30T23:15:55.789Z,99144.66
2023-01-30T23:18:45.685Z,99152.34
2023-01-30T23:21:28.398Z,99154.06
2023-01-30T23:24:12.625Z,99154.97
2023-01-30T23:26:52.956Z,99150.00
2023-01-30T23:29:31.586Z,99155.13
2023-01-30T23:32:10.943Z,99156.06
2023-01-30T23:34:50.663Z,99156.94
2023-01-30T23:37:43.952Z,99152.78
2023-01-30T23:40:25.886Z,99153.63
2023-01-30T23:43:05.593Z,99145.16
2023-01-30T23:45:45.075Z,99148.50
2023-01-30T23:48:25.280Z,99162.78
2023-01-30T23:51:04.629Z,99137.56
2023-01-30T23:53:45.087Z,99157.91
2023-01-30T23:56:28.975Z,99159.63
2023-01-30T23:59:08.607Z,99157.28
